sensor_id;sensor_type;location;lat;lon;timestamp;pressure;altitude;pressure_sealevel;temperature;humidity
5238;BME280;2639;49.700;7.962;2022-08-21T07:24:05;98898.81;;;18.67;80.39
5238;BME280;2639;49.700;7.962;2022-08-21T07:27:15;98906.22;;;18.97;78.76
5238;BME280;2639;49.700;7.962;2022-08-21T07:30:25;98900.69;;;19.30;78.31
5238;BME280;2639;49.700;7.962;2022-08-21T07:33:35;98904.72;;;19.64;75.80
5238;BME280;2639;49.700;7.962;2022-08-21T07:36:45;98902.56;;;19.95;69.75
5238;BME280;2639;49.700;7.962;2022-08-21T07:39:58;98902.22;;;20.31;67.60
5238;BME280;2639;49.700;7.962;2022-08-21T07:43:08;98898.53;;;20.71;67.13
5238;BME280;2639;49.700;7.962;2022-08-21T07:46:17;98891.00;;;21.03;64.89
5238;BME280;2639;49.700;7.962;2022-08-21T07:49:28;98883.63;;;21.41;63.04
5238;BME280;2639;49.700;7.962;2022-08-21T07:52:38;98882.00;;;21.72;61.52
5238;BME280;2639;49.700;7.962;2022-08-21T07:55:50;98879.31;;;21.96;59.67
5238;BME280;2639;49.700;7.962;2022-08-21T07:59:00;98879.44;;;22.27;58.74
5238;BME280;2639;49.700;7.962;2022-08-21T08:02:21;98884.88;;;22.64;56.32
5238;BME280;2639;49.700;7.962;2022-08-21T08:05:31;98884.22;;;23.01;57.66
5238;BME280;2639;49.700;7.962;2022-08-21T08:08:41;98873.53;;;23.60;57.77
5238;BME280;2639;49.700;7.962;2022-08-21T08:11:52;98868.09;;;24.25;54.71
5238;BME280;2639;49.700;7.962;2022-08-21T08:15:07;98864.34;;;24.53;50.93
5238;BME280;2639;49.700;7.962;2022-08-21T08:18:17;98858.66;;;24.76;51.92
5238;BME280;2639;49.700;7.962;2022-08-21T08:21:27;98864.31;;;24.96;51.04
5238;BME280;2639;49.700;7.962;2022-08-21T08:24:38;98860.88;;;25.00;51.05
5238;BME280;2639;49.700;7.962;2022-08-21T08:27:49;98854.97;;;25.12;49.28
5238;BME280;2639;49.700;7.962;2022-08-21T08:31:00;98843.56;;;25.60;49.42
5238;BME280;2639;49.700;7.962;2022-08-21T08:34:09;98841.03;;;26.22;48.85
5238;BME280;2639;49.700;7.962;2022-08-21T08:37:32;98834.78;;;26.86;46.93
5238;BME280;2639;49.700;7.962;2022-08-21T08:40:47;98834.25;;;27.18;44.62
5238;BME280;2639;49.700;7.962;2022-08-21T08:44:04;98830.19;;;27.57;44.19
5238;BME280;2639;49.700;7.962;2022-08-21T08:47:17;98826.66;;;27.52;42.89
5238;BME280;2639;49.700;7.962;2022-08-21T08:50:36;98827.59;;;27.58;44.08
5238;BME280;2639;49.700;7.962;2022-08-21T08:53:51;98819.66;;;27.57;43.04
5238;BME280;2639;49.700;7.962;2022-08-21T08:57:03;98821.56;;;27.76;42.62
5238;BME280;2639;49.700;7.962;2022-08-21T09:00:20;98825.06;;;27.72;42.29
5238;BME280;2639;49.700;7.962;2022-08-21T09:03:31;98814.56;;;27.78;42.30
5238;BME280;2639;49.700;7.962;2022-08-21T09:06:53;98825.44;;;28.30;41.94
5238;BME280;2639;49.700;7.962;2022-08-21T09:10:13;98816.31;;;27.79;42.31
5238;BME280;2639;49.700;7.962;2022-08-21T09:13:37;98823.09;;;27.43;42.53
5238;BME280;2639;49.700;7.962;2022-08-21T09:16:56;98820.63;;;26.75;44.18
5238;BME280;2639;49.700;7.962;2022-08-21T09:20:17;98821.06;;;26.43;44.49
5238;BME280;2639;49.700;7.962;2022-08-21T09:23:33;98826.28;;;26.38;45.19
5238;BME280;2639;49.700;7.962;2022-08-21T09:26:51;98823.69;;;26.40;45.25
5238;BME280;2639;49.700;7.962;2022-08-21T09:30:06;98816.56;;;27.11;45.48
5238;BME280;2639;49.700;7.962;2022-08-21T09:33:18;98821.84;;;28.13;42.99
5238;BME280;2639;49.700;7.962;2022-08-21T09:36:36;98816.06;;;29.32;40.71
5238;BME280;2639;49.700;7.962;2022-08-21T09:39:46;98812.44;;;30.24;40.34
5238;BME280;2639;49.700;7.962;2022-08-21T09:42:58;98809.66;;;30.64;38.67
5238;BME280;2639;49.700;7.962;2022-08-21T09:46:10;98799.81;;;30.86;37.62
5238;BME280;2639;49.700;7.962;2022-08-21T09:49:28;98782.88;;;31.07;36.81
5238;BME280;2639;49.700;7.962;2022-08-21T09:52:45;98772.19;;;31.16;36.97
5238;BME280;2639;49.700;7.962;2022-08-21T09:55:57;98779.50;;;30.90;36.68
5238;BME280;2639;49.700;7.962;2022-08-21T09:59:25;98783.09;;;30.70;37.76
5238;BME280;2639;49.700;7.962;2022-08-21T10:02:38;98785.75;;;30.73;36.91
5238;BME280;2639;49.700;7.962;2022-08-21T10:05:56;98779.63;;;30.62;36.49
5238;BME280;2639;49.700;7.962;2022-08-21T10:09:07;98770.66;;;30.89;36.18
5238;BME280;2639;49.700;7.962;2022-08-21T10:12:31;98764.41;;;30.95;36.86
5238;BME280;2639;49.700;7.962;2022-08-21T10:15:48;98769.69;;;30.98;35.31
5238;BME280;2639;49.700;7.962;2022-08-21T10:19:07;98768.75;;;31.08;36.24
5238;BME280;2639;49.700;7.962;2022-08-21T10:22:32;98766.94;;;31.12;35.97
5238;BME280;2639;49.700;7.962;2022-08-21T10:25:48;98776.91;;;30.71;35.39
5238;BME280;2639;49.700;7.962;2022-08-21T10:29:32;98775.97;;;30.81;36.38
5238;BME280;2639;49.700;7.962;2022-08-21T10:33:01;98753.72;;;31.09;35.71
5238;BME280;2639;49.700;7.962;2022-08-21T10:36:14;98763.25;;;31.30;36.32
5238;BME280;2639;49.700;7.962;2022-08-21T10:39:34;98756.09;;;31.44;35.63
5238;BME280;2639;49.700;7.962;2022-08-21T10:42:51;98761.44;;;31.41;34.07
5238;BME280;2639;49.700;7.962;2022-08-21T10:46:11;98745.38;;;31.53;35.24
5238;BME280;2639;49.700;7.962;2022-08-21T10:49:32;98734.56;;;31.72;34.79
5238;BME280;2639;49.700;7.962;2022-08-21T10:52:59;98736.41;;;31.66;34.59
5238;BME280;2639;49.700;7.962;2022-08-21T10:56:17;98733.97;;;31.43;35.81
5238;BME280;2639;49.700;7.962;2022-08-21T10:59:31;98719.59;;;31.63;35.23
5238;BME280;2639;49.700;7.962;2022-08-21T11:02:50;98723.94;;;31.72;35.00
5238;BME280;2639;49.700;7.962;2022-08-21T11:06:04;98724.72;;;31.84;34.96
5238;BME280;2639;49.700;7.962;2022-08-21T11:09:17;98726.31;;;31.08;35.48
5238;BME280;2639;49.700;7.962;2022-08-21T11:12:35;98728.47;;;30.48;36.57
5238;BME280;2639;49.700;7.962;2022-08-21T11:15:54;98724.81;;;30.61;36.41
5238;BME280;2639;49.700;7.962;2022-08-21T11:19:09;98722.81;;;31.03;35.77
5238;BME280;2639;49.700;7.962;2022-08-21T11:22:23;98716.41;;;31.27;35.77
5238;BME280;2639;49.700;7.962;2022-08-21T11:25:39;98722.50;;;31.37;33.90
5238;BME280;2639;49.700;7.962;2022-08-21T11:28:54;98719.28;;;31.94;33.21
5238;BME280;2639;49.700;7.962;2022-08-21T11:32:24;98711.16;;;32.74;32.71
5238;BME280;2639;49.700;7.962;2022-08-21T11:35:41;98715.16;;;33.00;31.84
5238;BME280;2639;49.700;7.962;2022-08-21T11:38:57;98702.28;;;33.29;31.55
5238;BME280;2639;49.700;7.962;2022-08-21T11:42:16;98702.16;;;32.81;31.76
5238;BME280;2639;49.700;7.962;2022-08-21T11:45:37;98695.13;;;32.14;31.72
5238;BME280;2639;49.700;7.962;2022-08-21T11:48:59;98701.63;;;30.97;33.49
5238;BME280;2639;49.700;7.962;2022-08-21T11:52:16;98695.56;;;30.76;33.62
5238;BME280;2639;49.700;7.962;2022-08-21T11:55:31;98696.41;;;30.81;33.24
5238;BME280;2639;49.700;7.962;2022-08-21T11:58:45;98690.94;;;31.06;33.71
5238;BME280;2639;49.700;7.962;2022-08-21T12:02:00;98686.91;;;31.59;33.26
5238;BME280;2639;49.700;7.962;2022-08-21T12:05:24;98685.91;;;31.70;32.72
5238;BME280;2639;49.700;7.962;2022-08-21T12:08:36;98678.53;;;31.11;32.62
5238;BME280;2639;49.700;7.962;2022-08-21T12:11:47;98679.78;;;30.56;33.05
5238;BME280;2639;49.700;7.962;2022-08-21T12:15:13;98688.97;;;29.92;34.26
5238;BME280;2639;49.700;7.962;2022-08-21T12:18:30;98685.53;;;29.55;35.69
5238;BME280;2639;49.700;7.962;2022-08-21T12:21:52;98679.91;;;30.39;35.46
5238;BME280;2639;49.700;7.962;2022-08-21T12:25:06;98674.78;;;31.31;33.77
5238;BME280;2639;49.700;7.962;2022-08-21T12:28:22;98661.38;;;32.22;31.51
5238;BME280;2639;49.700;7.962;2022-08-21T12:31:32;98663.97;;;32.85;30.86
5238;BME280;2639;49.700;7.962;2022-08-21T12:34:46;98664.28;;;33.21;31.17
5238;BME280;2639;49.700;7.962;2022-08-21T12:38:02;98667.59;;;33.34;30.08
5238;BME280;2639;49.700;7.962;2022-08-21T12:41:19;98674.25;;;33.10;30.91
5238;BME280;2639;49.700;7.962;2022-08-21T12:44:35;98671.38;;;32.68;31.75
5238;BME280;2639;49.700;7.962;2022-08-21T12:47:51;98669.88;;;33.07;31.48
5238;BME280;2639;49.700;7.962;2022-08-21T12:51:11;98669.00;;;33.02;31.26
5238;BME280;2639;49.700;7.962;2022-08-21T12:54:24;98659.84;;;33.20;30.78
5238;BME280;2639;49.700;7.962;2022-08-21T12:57:36;98644.84;;;33.64;29.98
5238;BME280;2639;49.700;7.962;2022-08-21T13:00:49;98662.63;;;33.62;29.90
5238;BME280;2639;49.700;7.962;2022-08-21T13:04:02;98655.06;;;32.89;30.82
5238;BME280;2639;49.700;7.962;2022-08-21T13:07:16;98651.09;;;32.59;30.77
5238;BME280;2639;49.700;7.962;2022-08-21T13:10:32;98646.13;;;32.94;30.55
5238;BME280;2639;49.700;7.962;2022-08-21T13:13:42;98644.97;;;33.10;31.81
5238;BME280;2639;49.700;7.962;2022-08-21T13:16:59;98647.72;;;33.52;30.59
5238;BME280;2639;49.700;7.962;2022-08-21T13:20:20;98649.50;;;33.98;30.11
5238;BME280;2639;49.700;7.962;2022-08-21T13:23:32;98639.03;;;34.29;28.66
5238;BME280;2639;49.700;7.962;2022-08-21T13:26:42;98641.72;;;34.28;29.34
5238;BME280;2639;49.700;7.962;2022-08-21T13:30:05;98639.16;;;34.64;29.40
5238;BME280;2639;49.700;7.962;2022-08-21T13:33:17;98629.75;;;34.83;28.78
5238;BME280;2639;49.700;7.962;2022-08-21T13:36:31;98640.88;;;34.65;28.82
5238;BME280;2639;49.700;7.962;2022-08-21T13:39:49;98627.63;;;34.23;29.21
5238;BME280;2639;49.700;7.962;2022-08-21T13:43:00;98628.56;;;33.80;30.43
5238;BME280;2639;49.700;7.962;2022-08-21T13:46:12;98629.69;;;33.68;29.92
5238;BME280;2639;49.700;7.962;2022-08-21T13:49:26;98615.81;;;33.94;29.64
5238;BME280;2639;49.700;7.962;2022-08-21T13:52:47;98617.13;;;34.17;29.74
5238;BME280;2639;49.700;7.962;2022-08-21T13:56:03;98615.00;;;34.31;29.86
5238;BME280;2639;49.700;7.962;2022-08-21T13:59:24;98606.09;;;34.32;28.41
5238;BME280;2639;49.700;7.962;2022-08-21T14:02:38;98607.84;;;33.49;30.16
5238;BME280;2639;49.700;7.962;2022-08-21T14:05:49;98612.75;;;32.74;30.36
5238;BME280;2639;49.700;7.962;2022-08-21T14:09:00;98610.88;;;32.79;31.98
5238;BME280;2639;49.700;7.962;2022-08-21T14:12:15;98607.75;;;33.07;30.76
5238;BME280;2639;49.700;7.962;2022-08-21T14:15:33;98610.88;;;32.79;31.88
5238;BME280;2639;49.700;7.962;2022-08-21T14:18:45;98618.53;;;31.78;31.26
5238;BME280;2639;49.700;7.962;2022-08-21T14:21:55;98611.03;;;31.37;32.72
5238;BME280;2639;49.700;7.962;2022-08-21T14:25:08;98601.16;;;31.51;32.66
5238;BME280;2639;49.700;7.962;2022-08-21T14:28:24;98596.38;;;31.81;32.18
5238;BME280;2639;49.700;7.962;2022-08-21T14:31:36;98596.19;;;31.93;31.75
5238;BME280;2639;49.700;7.962;2022-08-21T14:34:51;98590.84;;;31.98;32.31
5238;BME280;2639;49.700;7.962;2022-08-21T14:38:02;98590.84;;;31.99;31.88
5238;BME280;2639;49.700;7.962;2022-08-21T14:41:23;98578.47;;;31.98;31.41
5238;BME280;2639;49.700;7.962;2022-08-21T14:44:35;98581.31;;;31.83;31.41
5238;BME280;2639;49.700;7.962;2022-08-21T14:47:44;98590.38;;;31.66;31.98
5238;BME280;2639;49.700;7.962;2022-08-21T14:50:54;98586.38;;;31.29;33.10
5238;BME280;2639;49.700;7.962;2022-08-21T14:54:08;98589.44;;;30.89;33.23
5238;BME280;2639;49.700;7.962;2022-08-21T14:57:17;98587.78;;;30.74;32.75
5238;BME280;2639;49.700;7.962;2022-08-21T15:00:28;98576.50;;;30.47;33.57
5238;BME280;2639;49.700;7.962;2022-08-21T15:03:44;98589.91;;;30.27;33.66
5238;BME280;2639;49.700;7.962;2022-08-21T15:06:54;98590.81;;;30.17;34.39
5238;BME280;2639;49.700;7.962;2022-08-21T15:10:04;98593.53;;;30.08;34.48
5238;BME280;2639;49.700;7.962;2022-08-21T15:13:17;98598.91;;;29.97;34.17
5238;BME280;2639;49.700;7.962;2022-08-21T15:16:29;98588.97;;;30.34;34.16
5238;BME280;2639;49.700;7.962;2022-08-21T15:19:40;98581.41;;;30.95;32.59
5238;BME280;2639;49.700;7.962;2022-08-21T15:22:50;98590.47;;;31.57;32.32
5238;BME280;2639;49.700;7.962;2022-08-21T15:26:00;98583.81;;;31.92;31.97
5238;BME280;2639;49.700;7.962;2022-08-21T15:29:10;98581.59;;;32.25;32.33
5238;BME280;2639;49.700;7.962;2022-08-21T15:32:23;98572.41;;;32.46;31.04
5238;BME280;2639;49.700;7.962;2022-08-21T15:35:35;98573.00;;;32.65;31.03
5238;BME280;2639;49.700;7.962;2022-08-21T15:38:48;98571.44;;;33.06;30.82
5238;BME280;2639;49.700;7.962;2022-08-21T15:41:58;98563.75;;;33.36;30.51
5238;BME280;2639;49.700;7.962;2022-08-21T15:45:18;98559.53;;;33.67;29.86
5238;BME280;2639;49.700;7.962;2022-08-21T15:48:29;98558.69;;;33.67;30.52
5238;BME280;2639;49.700;7.962;2022-08-21T15:51:39;98558.28;;;33.42;30.69
5238;BME280;2639;49.700;7.962;2022-08-21T15:54:51;98561.28;;;33.25;30.09
5238;BME280;2639;49.700;7.962;2022-08-21T15:58:03;98564.88;;;32.74;30.61
5238;BME280;2639;49.700;7.962;2022-08-21T16:01:13;98566.81;;;32.07;30.77
5238;BME280;2639;49.700;7.962;2022-08-21T16:04:26;98563.38;;;31.28;31.43
5238;BME280;2639;49.700;7.962;2022-08-21T16:07:36;98564.59;;;30.99;33.07
5238;BME280;2639;49.700;7.962;2022-08-21T16:10:46;98559.44;;;30.85;32.90
5238;BME280;2639;49.700;7.962;2022-08-21T16:13:56;98560.53;;;30.58;33.07
5238;BME280;2639;49.700;7.962;2022-08-21T16:17:06;98562.56;;;30.22;33.92
5238;BME280;2639;49.700;7.962;2022-08-21T16:20:20;98563.63;;;29.89;33.65
5238;BME280;2639;49.700;7.962;2022-08-21T16:23:30;98557.53;;;29.73;35.10
5238;BME280;2639;49.700;7.962;2022-08-21T16:26:39;98560.03;;;30.00;34.82
5238;BME280;2639;49.700;7.962;2022-08-21T16:29:50;98550.16;;;30.30;34.01
5238;BME280;2639;49.700;7.962;2022-08-21T16:33:02;98553.63;;;30.38;34.91
5238;BME280;2639;49.700;7.962;2022-08-21T16:36:14;98552.94;;;30.09;34.59
5238;BME280;2639;49.700;7.962;2022-08-21T16:39:24;98548.72;;;29.80;35.32
5238;BME280;2639;49.700;7.962;2022-08-21T16:42:34;98558.53;;;29.46;35.55
5238;BME280;2639;49.700;7.962;2022-08-21T16:45:44;98551.59;;;29.19;36.65
5238;BME280;2639;49.700;7.962;2022-08-21T16:48:54;98547.22;;;28.93;38.19
5238;BME280;2639;49.700;7.962;2022-08-21T16:52:06;98543.72;;;28.69;37.97
5238;BME280;2639;49.700;7.962;2022-08-21T16:55:17;98548.16;;;28.55;39.17
5238;BME280;2639;49.700;7.962;2022-08-21T16:58:30;98549.00;;;28.36;39.48
5238;BME280;2639;49.700;7.962;2022-08-21T17:01:41;98552.50;;;28.04;41.04
5238;BME280;2639;49.700;7.962;2022-08-21T17:04:50;98546.25;;;27.82;40.88
5238;BME280;2639;49.700;7.962;2022-08-21T17:08:02;98548.81;;;27.59;41.18
5238;BME280;2639;49.700;7.962;2022-08-21T17:11:16;98547.00;;;27.39;42.51
5238;BME280;2639;49.700;7.962;2022-08-21T17:14:46;98551.31;;;27.26;42.42
5238;BME280;2639;49.700;7.962;2022-08-21T17:17:55;98546.84;;;27.08;42.99
5238;BME280;2639;49.700;7.962;2022-08-21T17:21:05;98544.94;;;26.83;44.38
5238;BME280;2639;49.700;7.962;2022-08-21T17:24:16;98550.94;;;26.65;45.08
5238;BME280;2639;49.700;7.962;2022-08-21T17:27:26;98547.28;;;26.49;46.85
5238;BME280;2639;49.700;7.962;2022-08-21T17:30:36;98550.69;;;26.34;47.41
5238;BME280;2639;49.700;7.962;2022-08-21T17:33:52;98547.03;;;26.20;46.00
5238;BME280;2639;49.700;7.962;2022-08-21T17:37:04;98551.31;;;26.10;46.89
5238;BME280;2639;49.700;7.962;2022-08-21T17:40:16;98548.63;;;25.99;46.70
5238;BME280;2639;49.700;7.962;2022-08-21T17:43:26;98538.00;;;25.92;46.90
5238;BME280;2639;49.700;7.962;2022-08-21T17:46:36;98547.53;;;25.83;48.16
5238;BME280;2639;49.700;7.962;2022-08-21T17:49:47;98545.69;;;25.75;48.15
5238;BME280;2639;49.700;7.962;2022-08-21T17:52:56;98544.66;;;25.62;47.94
5238;BME280;2639;49.700;7.962;2022-08-21T17:56:08;98547.16;;;25.50;49.00
5238;BME280;2639;49.700;7.962;2022-08-21T17:59:18;98559.09;;;25.23;49.33
5238;BME280;2639;49.700;7.962;2022-08-21T18:02:28;98563.13;;;24.99;49.20
5238;BME280;2639;49.700;7.962;2022-08-21T18:05:39;98563.00;;;24.90;49.98
5238;BME280;2639;49.700;7.962;2022-08-21T18:08:49;98563.66;;;24.77;50.94
5238;BME280;2639;49.700;7.962;2022-08-21T18:12:01;98571.38;;;24.65;51.48
5238;BME280;2639;49.700;7.962;2022-08-21T18:15:13;98562.25;;;24.46;51.65
5238;BME280;2639;49.700;7.962;2022-08-21T18:18:25;98571.56;;;24.27;51.86
5238;BME280;2639;49.700;7.962;2022-08-21T18:21:35;98578.19;;;24.05;52.70
5238;BME280;2639;49.700;7.962;2022-08-21T18:24:45;98584.03;;;23.91;52.40
5238;BME280;2639;49.700;7.962;2022-08-21T18:27:56;98584.66;;;23.77;52.72
5238;BME280;2639;49.700;7.962;2022-08-21T18:31:06;98593.00;;;23.59;52.92
5238;BME280;2639;49.700;7.962;2022-08-21T18:34:23;98587.28;;;23.36;54.10
5238;BME280;2639;49.700;7.962;2022-08-21T18:37:34;98589.66;;;23.25;54.50
5238;BME280;2639;49.700;7.962;2022-08-21T18:40:49;98590.22;;;23.10;54.36
5238;BME280;2639;49.700;7.962;2022-08-21T18:44:04;98600.47;;;23.01;55.07
5238;BME280;2639;49.700;7.962;2022-08-21T18:47:19;98601.88;;;22.86;55.33
5238;BME280;2639;49.700;7.962;2022-08-21T18:50:29;98603.28;;;22.72;55.38
5238;BME280;2639;49.700;7.962;2022-08-21T18:53:39;98596.91;;;22.62;55.13
5238;BME280;2639;49.700;7.962;2022-08-21T18:56:48;98599.28;;;22.53;55.11
5238;BME280;2639;49.700;7.962;2022-08-21T19:00:05;98608.66;;;22.43;56.01
5238;BME280;2639;49.700;7.962;2022-08-21T19:03:19;98614.41;;;22.30;55.17
5238;BME280;2639;49.700;7.962;2022-08-21T19:06:31;98623.28;;;22.03;56.12
5238;BME280;2639;49.700;7.962;2022-08-21T19:09:45;98619.34;;;21.88;57.13
5238;BME280;2639;49.700;7.962;2022-08-21T19:13:17;98618.16;;;21.75;57.71
5238;BME280;2639;49.700;7.962;2022-08-21T19:16:29;98618.56;;;21.60;57.21
5238;BME280;2639;49.700;7.962;2022-08-21T19:19:38;98621.06;;;21.55;57.72
5238;BME280;2639;49.700;7.962;2022-08-21T19:22:48;98621.59;;;21.43;58.08
5238;BME280;2639;49.700;7.962;2022-08-21T19:26:05;98629.84;;;21.30;59.42
5238;BME280;2639;49.700;7.962;2022-08-21T19:29:17;98625.56;;;21.04;60.73
5238;BME280;2639;49.700;7.962;2022-08-21T19:32:45;98629.50;;;20.91;61.56
5238;BME280;2639;49.700;7.962;2022-08-21T19:35:59;98626.00;;;20.89;61.44
5238;BME280;2639;49.700;7.962;2022-08-21T19:39:09;98625.13;;;20.90;60.62
5238;BME280;2639;49.700;7.962;2022-08-21T19:42:19;98626.06;;;20.92;60.26
5238;BME280;2639;49.700;7.962;2022-08-21T19:45:36;98634.44;;;20.81;59.33
5238;BME280;2639;49.700;7.962;2022-08-21T19:48:48;98633.47;;;20.78;60.04
5238;BME280;2639;49.700;7.962;2022-08-21T19:51:58;98625.50;;;20.73;60.03
5238;BME280;2639;49.700;7.962;2022-08-21T19:55:09;98636.50;;;20.65;60.30
5238;BME280;2639;49.700;7.962;2022-08-21T19:58:25;98636.16;;;20.55;59.96
5238;BME280;2639;49.700;7.962;2022-08-21T20:01:37;98645.31;;;20.43;60.98
5238;BME280;2639;49.700;7.962;2022-08-21T20:04:49;98636.31;;;20.34;60.63
5238;BME280;2639;49.700;7.962;2022-08-21T20:08:02;98643.13;;;20.29;61.40
5238;BME280;2639;49.700;7.962;2022-08-21T20:11:13;98647.13;;;20.20;61.76
5238;BME280;2639;49.700;7.962;2022-08-21T20:14:25;98645.94;;;20.10;62.35
5238;BME280;2639;49.700;7.962;2022-08-21T20:17:38;98649.72;;;19.95;62.92
5238;BME280;2639;49.700;7.962;2022-08-21T20:20:52;98650.25;;;19.85;63.63
